createdAt,value
2018-02-23T00:00:00.136Z,0.00
2018-02-23T00:01:51.909Z,0.00
2018-02-23T00:02:51.856Z,0.00
2018-02-23T00:04:43.562Z,0.00
2018-02-23T00:05:43.465Z,0.00
2018-02-23T00:07:35.199Z,0.00
2018-02-23T00:08:35.130Z,0.00
2018-02-23T00:10:26.886Z,0.00
2018-02-23T00:11:26.787Z,0.00
2018-02-23T00:13:18.562Z,0.00
2018-02-23T00:14:18.458Z,0.00
2018-02-23T00:16:10.209Z,0.00
2018-02-23T00:17:10.127Z,0.00
2018-02-23T00:19:01.886Z,0.00
2018-02-23T00:20:01.826Z,0.00
2018-02-23T00:21:53.601Z,0.00
2018-02-23T00:22:53.574Z,0.00
2018-02-23T00:24:45.258Z,0.00
2018-02-23T00:25:45.183Z,0.00
2018-02-23T00:27:36.922Z,0.00
2018-02-23T00:28:36.860Z,0.00
2018-02-23T00:30:28.600Z,0.00
2018-02-23T00:31:28.509Z,0.00
2018-02-23T00:33:20.296Z,0.00
2018-02-23T00:34:20.190Z,0.00
2018-02-23T00:36:11.965Z,0.00
2018-02-23T00:37:11.883Z,0.00
2018-02-23T00:39:03.616Z,0.00
2018-02-23T00:40:03.546Z,0.00
2018-02-23T00:41:55.353Z,0.00
2018-02-23T00:42:55.270Z,0.00
2018-02-23T00:44:47.025Z,0.00
2018-02-23T00:45:46.951Z,0.00
2018-02-23T00:47:38.715Z,0.00
2018-02-23T00:48:38.638Z,0.00
2018-02-23T00:50:30.371Z,0.00
2018-02-23T00:51:30.288Z,0.00
2018-02-23T00:54:53.288Z,0.00
2018-02-23T00:55:53.213Z,0.00
2018-02-23T00:57:44.960Z,0.00
2018-02-23T00:58:44.884Z,0.00
2018-02-23T01:00:36.677Z,0.00
2018-02-23T01:01:36.580Z,0.00
2018-02-23T01:03:28.322Z,0.00
2018-02-23T01:04:28.250Z,0.00
2018-02-23T01:06:20.018Z,0.00
2018-02-23T01:07:19.925Z,0.00
2018-02-23T01:09:11.654Z,0.00
2018-02-23T01:10:11.589Z,0.00
2018-02-23T01:12:03.469Z,0.00
2018-02-23T01:13:03.258Z,0.00
2018-02-23T01:14:55.020Z,0.00
2018-02-23T01:15:54.952Z,0.00
2018-02-23T01:17:46.698Z,0.00
2018-02-23T01:18:46.609Z,0.00
2018-02-23T01:20:38.384Z,0.00
2018-02-23T01:21:38.294Z,0.00
2018-02-23T01:23:30.066Z,0.00
2018-02-23T01:24:29.977Z,0.00
2018-02-23T01:26:21.836Z,0.00
2018-02-23T01:27:21.632Z,0.00
2018-02-23T01:29:13.373Z,0.00
2018-02-23T01:30:13.298Z,0.00
2018-02-23T01:32:05.043Z,0.00
2018-02-23T01:33:04.972Z,0.00
2018-02-23T01:34:56.735Z,0.00
2018-02-23T01:35:56.652Z,0.00
2018-02-23T01:37:48.408Z,0.00
2018-02-23T01:38:48.332Z,0.00
2018-02-23T01:40:40.098Z,0.00
2018-02-23T01:41:40.011Z,0.00
2018-02-23T01:43:31.742Z,0.00
2018-02-23T01:44:31.673Z,0.00
2018-02-23T01:46:23.432Z,0.00
2018-02-23T01:47:23.345Z,0.00
2018-02-23T01:49:15.118Z,0.00
2018-02-23T01:50:15.015Z,0.00
2018-02-23T01:52:06.772Z,0.00
2018-02-23T01:53:06.693Z,0.00
2018-02-23T01:54:58.457Z,0.00
2018-02-23T01:55:58.362Z,0.00
2018-02-23T01:57:50.112Z,0.00
2018-02-23T01:58:50.043Z,0.00
2018-02-23T02:00:41.795Z,0.00
2018-02-23T02:01:41.712Z,0.00
2018-02-23T02:03:33.465Z,0.00
2018-02-23T02:04:33.391Z,0.00
2018-02-23T02:06:25.142Z,0.00
2018-02-23T02:07:25.058Z,0.00
2018-02-23T02:09:16.916Z,0.00
2018-02-23T02:10:16.742Z,0.00
2018-02-23T02:12:08.481Z,0.00
2018-02-23T02:13:08.391Z,0.00
2018-02-23T02:15:00.154Z,0.00
2018-02-23T02:16:00.047Z,0.00
2018-02-23T02:17:51.787Z,0.00
2018-02-23T02:18:51.716Z,0.00
2018-02-23T02:20:43.478Z,0.00
2018-02-23T02:21:43.387Z,0.00
2018-02-23T02:23:35.126Z,0.00
2018-02-23T02:24:35.058Z,0.00
2018-02-23T02:26:26.792Z,0.00
2018-02-23T02:27:26.711Z,0.00
2018-02-23T02:29:18.435Z,0.00
2018-02-23T02:30:18.366Z,0.00
2018-02-23T02:32:10.118Z,0.00
2018-02-23T02:33:10.031Z,0.00
2018-02-23T02:35:01.790Z,0.00
2018-02-23T02:36:01.717Z,0.00
2018-02-23T02:37:53.459Z,0.00
2018-02-23T02:38:53.378Z,0.00
2018-02-23T02:40:45.103Z,0.00
2018-02-23T02:41:45.035Z,0.00
2018-02-23T02:43:36.768Z,0.00
2018-02-23T02:44:36.690Z,0.00
2018-02-23T02:46:28.434Z,0.00
2018-02-23T02:47:28.341Z,0.00
2018-02-23T02:49:20.094Z,0.00
2018-02-23T02:50:20.008Z,0.00
2018-02-23T02:52:11.768Z,0.00
2018-02-23T02:53:11.663Z,0.00
2018-02-23T02:55:03.389Z,0.00
2018-02-23T02:56:03.320Z,0.00
2018-02-23T02:57:55.051Z,0.00
2018-02-23T02:58:54.975Z,0.00
2018-02-23T03:00:46.758Z,0.00
2018-02-23T03:01:46.753Z,0.00
2018-02-23T03:03:38.504Z,0.00
2018-02-23T03:04:38.424Z,0.00
2018-02-23T03:06:30.310Z,0.00
2018-02-23T03:07:30.088Z,0.00
2018-02-23T03:09:21.836Z,0.00
2018-02-23T03:10:21.770Z,0.00
2018-02-23T03:12:13.481Z,0.00
2018-02-23T03:13:13.440Z,0.00
2018-02-23T03:15:05.161Z,0.00
2018-02-23T03:16:05.113Z,0.00
2018-02-23T03:17:56.799Z,0.00
2018-02-23T03:18:56.733Z,0.00
2018-02-23T03:20:48.476Z,0.00
2018-02-23T03:21:48.390Z,0.00
2018-02-23T03:23:40.164Z,0.00
2018-02-23T03:24:40.088Z,0.00
2018-02-23T03:26:31.864Z,0.00
2018-02-23T03:27:31.782Z,0.00
2018-02-23T03:29:23.524Z,0.00
2018-02-23T03:30:23.445Z,0.00
2018-02-23T03:32:15.173Z,0.00
2018-02-23T03:33:15.117Z,0.00
2018-02-23T03:35:06.832Z,0.00
2018-02-23T03:36:06.746Z,0.00
2018-02-23T03:37:58.480Z,0.00
2018-02-23T03:38:58.397Z,0.00
2018-02-23T03:40:50.196Z,0.00
2018-02-23T03:41:50.093Z,0.00
2018-02-23T03:43:41.826Z,0.00
2018-02-23T03:44:41.770Z,0.00
2018-02-23T03:46:33.487Z,0.00
2018-02-23T03:47:33.411Z,0.00
2018-02-23T03:49:25.136Z,0.00
2018-02-23T03:50:25.063Z,0.00
2018-02-23T03:52:16.841Z,0.00
2018-02-23T03:53:16.748Z,0.00
2018-02-23T03:55:08.520Z,0.00
2018-02-23T03:56:08.490Z,0.00
2018-02-23T03:58:00.173Z,0.00
2018-02-23T03:59:00.100Z,0.00
2018-02-23T04:00:51.851Z,0.00
2018-02-23T04:01:51.765Z,0.00
2018-02-23T04:03:43.491Z,0.00
2018-02-23T04:04:43.415Z,0.00
2018-02-23T04:06:35.201Z,0.00
2018-02-23T04:07:35.106Z,0.00
2018-02-23T04:09:26.887Z,0.00
2018-02-23T04:10:26.783Z,0.00
2018-02-23T04:12:18.657Z,0.00
2018-02-23T04:13:18.501Z,0.00
2018-02-23T04:15:10.235Z,0.00
2018-02-23T04:16:10.177Z,0.00
2018-02-23T04:18:01.905Z,0.00
2018-02-23T04:19:01.819Z,0.00
2018-02-23T04:20:53.548Z,0.00
2018-02-23T04:21:53.479Z,0.00
2018-02-23T04:23:45.212Z,0.00
2018-02-23T04:24:45.128Z,0.00
2018-02-23T04:26:36.870Z,0.00
2018-02-23T04:27:36.830Z,0.00
2018-02-23T04:29:28.529Z,0.00
2018-02-23T04:30:28.452Z,0.00
2018-02-23T04:32:20.203Z,0.00
2018-02-23T04:33:20.131Z,0.00
2018-02-23T04:35:11.888Z,0.00
2018-02-23T04:36:11.786Z,0.00
2018-02-23T04:38:03.520Z,0.00
2018-02-23T04:39:03.448Z,0.00
2018-02-23T04:40:55.165Z,0.00
2018-02-23T04:41:55.094Z,0.00
2018-02-23T04:43:46.866Z,0.00
2018-02-23T04:44:46.773Z,0.00
2018-02-23T04:46:38.544Z,0.00
2018-02-23T04:47:38.468Z,0.00
2018-02-23T04:49:30.209Z,0.00
2018-02-23T04:50:30.113Z,0.00
2018-02-23T04:52:21.852Z,0.00
2018-02-23T04:53:21.781Z,0.00
2018-02-23T04:55:13.551Z,0.00
2018-02-23T04:56:13.464Z,0.00
2018-02-23T04:58:05.207Z,0.00
2018-02-23T04:59:05.148Z,0.00
2018-02-23T05:00:56.898Z,0.00
2018-02-23T05:01:56.799Z,0.00
2018-02-23T05:03:48.549Z,0.00
2018-02-23T05:04:48.457Z,0.00
2018-02-23T05:06:40.194Z,0.00
2018-02-23T05:07:40.123Z,0.00
2018-02-23T05:09:31.896Z,0.00
2018-02-23T05:10:31.787Z,0.00
2018-02-23T05:12:23.518Z,0.00
2018-02-23T05:13:23.445Z,0.00
2018-02-23T05:15:15.191Z,0.00
2018-02-23T05:16:15.103Z,0.00
2018-02-23T05:18:06.832Z,0.00
2018-02-23T05:19:06.756Z,0.00
2018-02-23T05:20:58.511Z,0.00
2018-02-23T05:21:58.423Z,0.00
2018-02-23T05:23:50.184Z,0.00
2018-02-23T05:24:50.104Z,0.00
2018-02-23T05:26:41.963Z,0.00
2018-02-23T05:27:41.875Z,0.00
2018-02-23T05:29:33.619Z,4.00
2018-02-23T05:30:33.545Z,0.00
2018-02-23T05:32:25.312Z,4.00
2018-02-23T05:33:25.226Z,4.00
2018-02-23T05:35:17.145Z,4.00
2018-02-23T05:36:16.886Z,8.00
2018-02-23T05:38:08.625Z,4.00
2018-02-23T05:39:08.537Z,8.00
2018-02-23T05:41:00.294Z,12.00
2018-02-23T05:42:00.245Z,12.00
2018-02-23T05:43:51.967Z,16.00
2018-02-23T05:44:51.899Z,20.00
2018-02-23T05:46:43.636Z,24.00
2018-02-23T05:47:43.551Z,32.00
2018-02-23T05:49:35.299Z,44.00
2018-02-23T05:50:35.247Z,56.00
2018-02-23T05:52:26.970Z,72.00
2018-02-23T05:53:26.888Z,84.00
2018-02-23T05:55:18.624Z,108.00
2018-02-23T05:56:18.572Z,120.00
2018-02-23T05:58:10.300Z,148.00
2018-02-23T05:59:10.212Z,168.00
2018-02-23T06:01:01.947Z,204.00
2018-02-23T06:02:01.885Z,232.00
2018-02-23T06:03:53.670Z,284.00
2018-02-23T06:04:53.586Z,312.00
2018-02-23T06:06:45.426Z,372.00
2018-02-23T06:07:45.314Z,408.00
2018-02-23T06:09:37.125Z,484.00
2018-02-23T06:10:36.985Z,532.00
2018-02-23T06:12:28.742Z,628.00
2018-02-23T06:13:28.648Z,684.00
2018-02-23T06:15:20.383Z,796.00
2018-02-23T06:16:20.309Z,864.00
2018-02-23T06:18:12.060Z,1012.00
2018-02-23T06:19:11.975Z,1100.00
2018-02-23T06:21:03.717Z,1260.00
2018-02-23T06:22:03.634Z,1328.00
2018-02-23T06:23:55.375Z,1464.00
2018-02-23T06:24:55.306Z,1540.00
2018-02-23T06:26:47.033Z,1688.00
2018-02-23T06:27:46.981Z,1780.00
2018-02-23T06:29:38.702Z,1968.00
2018-02-23T06:30:38.615Z,2072.00
2018-02-23T06:32:30.381Z,2276.00
2018-02-23T06:33:30.345Z,2392.00
2018-02-23T06:35:22.050Z,2628.00
2018-02-23T06:36:21.966Z,2760.00
2018-02-23T06:38:13.721Z,2980.00
2018-02-23T06:39:13.649Z,3104.00
2018-02-23T06:41:05.358Z,3356.00
2018-02-23T06:42:05.287Z,3508.00
2018-02-23T06:43:57.047Z,3720.00
2018-02-23T06:44:56.955Z,3832.00
2018-02-23T06:46:48.675Z,4056.00
2018-02-23T06:47:48.603Z,4184.00
2018-02-23T06:49:40.368Z,4420.00
2018-02-23T06:50:40.274Z,4544.00
2018-02-23T06:52:32.033Z,4772.00
2018-02-23T06:53:31.958Z,4912.00
2018-02-23T06:55:23.715Z,5188.00
2018-02-23T06:56:23.633Z,5304.00
2018-02-23T06:58:15.369Z,5516.00
2018-02-23T06:59:15.289Z,5640.00
2018-02-23T07:01:07.041Z,5864.00
2018-02-23T07:02:06.960Z,5960.00
2018-02-23T07:03:58.701Z,6132.00
2018-02-23T07:04:58.632Z,6268.00
2018-02-23T07:06:50.410Z,6488.00
2018-02-23T07:07:50.281Z,6536.00
2018-02-23T07:09:42.084Z,6788.00
2018-02-23T07:10:41.963Z,6816.00
2018-02-23T07:12:33.712Z,7052.00
2018-02-23T07:13:33.642Z,7164.00
2018-02-23T07:15:25.416Z,7384.00
2018-02-23T07:16:25.376Z,7448.00
2018-02-23T07:18:17.894Z,7636.00
2018-02-23T07:19:16.977Z,7748.00
2018-02-23T07:21:08.768Z,7908.00
2018-02-23T07:22:08.675Z,8072.00
2018-02-23T07:24:00.460Z,8388.00
2018-02-23T07:25:00.365Z,8556.00
2018-02-23T07:26:52.131Z,12176.00
2018-02-23T07:27:52.037Z,13656.00
2018-02-23T07:29:43.810Z,12540.00
2018-02-23T07:30:43.772Z,14368.00
2018-02-23T07:32:35.500Z,17792.00
2018-02-23T07:33:35.412Z,23328.00
2018-02-23T07:35:27.181Z,24256.00
2018-02-23T07:36:27.076Z,25056.00
2018-02-23T07:38:18.967Z,21440.00
2018-02-23T07:39:18.758Z,18240.00
2018-02-23T07:41:10.546Z,22336.00
2018-02-23T07:42:10.443Z,24352.00
2018-02-23T07:44:02.430Z,33280.00
2018-02-23T07:45:02.361Z,32288.00
2018-02-23T07:46:54.127Z,21728.00
2018-02-23T07:47:54.032Z,30624.00
2018-02-23T07:49:46.086Z,33632.00
2018-02-23T07:50:45.954Z,40384.00
2018-02-23T07:52:37.712Z,38624.00
2018-02-23T07:53:37.630Z,35680.00
2018-02-23T07:55:29.408Z,32000.00
2018-02-23T07:56:29.417Z,31808.00
2018-02-23T07:58:21.106Z,25312.00
2018-02-23T07:59:21.007Z,26624.00
2018-02-23T08:01:12.790Z,29248.00
2018-02-23T08:02:12.723Z,31584.00
2018-02-23T08:04:04.502Z,37952.00
2018-02-23T08:05:04.433Z,39680.00
2018-02-23T08:06:56.166Z,49440.00
2018-02-23T08:07:56.122Z,46784.00
2018-02-23T08:09:48.031Z,46112.00
2018-02-23T08:10:47.826Z,45280.00
2018-02-23T08:12:39.633Z,52832.00
2018-02-23T08:13:39.517Z,52448.00
2018-02-23T08:15:31.318Z,40224.00
2018-02-23T08:16:31.294Z,44672.00
2018-02-23T08:18:23.055Z,44704.00
2018-02-23T08:19:23.013Z,38112.00
2018-02-23T08:21:15.466Z,31616.00
2018-02-23T08:22:14.666Z,44192.00
2018-02-23T08:24:06.936Z,45536.00
2018-02-23T08:25:06.861Z,51264.00
2018-02-23T08:26:58.656Z,42080.00
2018-02-23T08:27:58.804Z,43840.00
2018-02-23T08:29:50.462Z,33728.00
2018-02-23T08:30:50.332Z,33216.00
2018-02-23T08:32:42.125Z,40064.00
2018-02-23T08:33:42.062Z,40128.00
2018-02-23T08:35:33.854Z,45728.00
2018-02-23T08:36:33.758Z,44608.00
2018-02-23T08:38:25.581Z,47488.00
2018-02-23T08:39:25.482Z,45408.00
2018-02-23T08:41:17.279Z,52544.00
2018-02-23T08:42:17.184Z,59072.00
2018-02-23T08:44:08.971Z,61312.00
2018-02-23T08:45:08.910Z,58752.00
2018-02-23T08:47:00.734Z,61152.00
2018-02-23T08:48:00.627Z,63360.00
2018-02-23T08:49:52.436Z,63616.00
2018-02-23T08:50:52.402Z,67296.00
2018-02-23T08:52:44.161Z,66976.00
2018-02-23T08:53:44.117Z,67296.00
2018-02-23T08:55:35.946Z,70880.00
2018-02-23T08:56:35.855Z,71488.00
2018-02-23T08:58:27.628Z,71808.00
2018-02-23T08:59:27.563Z,69312.00
2018-02-23T09:01:19.396Z,71552.00
2018-02-23T09:02:19.267Z,72320.00
2018-02-23T09:04:11.059Z,69952.00
2018-02-23T09:05:10.993Z,70240.00
2018-02-23T09:07:02.788Z,72192.00
2018-02-23T09:08:02.801Z,70432.00
2018-02-23T09:09:54.614Z,73280.00
2018-02-23T09:10:54.467Z,71424.00
2018-02-23T09:12:46.290Z,71456.00
2018-02-23T09:13:46.274Z,72192.00
2018-02-23T09:15:38.050Z,68512.00
2018-02-23T09:16:37.944Z,63520.00
2018-02-23T09:18:29.784Z,68192.00
2018-02-23T09:19:29.710Z,68288.00
2018-02-23T09:21:21.504Z,67808.00
2018-02-23T09:22:21.414Z,71168.00
2018-02-23T09:24:13.198Z,70048.00
2018-02-23T09:25:13.144Z,69792.00
2018-02-23T09:27:04.925Z,57568.00
2018-02-23T09:28:04.865Z,68256.00
2018-02-23T09:29:56.632Z,71232.00
2018-02-23T09:30:56.574Z,74560.00
2018-02-23T09:32:48.467Z,71552.00
2018-02-23T09:33:48.363Z,69792.00
2018-02-23T09:35:40.228Z,66464.00
2018-02-23T09:36:40.095Z,65440.00
2018-02-23T09:38:31.895Z,62240.00
2018-02-23T09:39:31.835Z,59008.00
2018-02-23T09:41:23.759Z,62560.00
2018-02-23T09:42:23.694Z,61760.00
2018-02-23T09:44:15.492Z,66144.00
2018-02-23T09:45:15.440Z,66720.00
2018-02-23T09:47:07.209Z,69216.00
2018-02-23T09:48:07.211Z,69024.00
2018-02-23T09:49:58.952Z,67232.00
2018-02-23T09:50:58.914Z,66912.00
2018-02-23T09:52:50.756Z,66816.00
2018-02-23T09:53:50.643Z,67488.00
2018-02-23T09:55:42.428Z,68288.00
2018-02-23T09:56:42.430Z,66432.00
2018-02-23T09:58:34.168Z,62112.00
2018-02-23T09:59:34.094Z,58592.00
2018-02-23T10:01:25.879Z,52032.00
2018-02-23T10:02:25.948Z,50336.00
2018-02-23T10:04:17.640Z,55968.00
2018-02-23T10:05:17.589Z,60160.00
2018-02-23T10:07:09.342Z,63904.00
2018-02-23T10:08:09.372Z,63360.00
2018-02-23T10:10:01.361Z,63616.00
2018-02-23T10:11:01.230Z,59392.00
2018-02-23T10:12:52.970Z,57888.00
2018-02-23T10:13:52.899Z,58400.00
2018-02-23T10:15:44.642Z,58528.00
2018-02-23T10:16:44.595Z,58336.00
2018-02-23T10:18:36.408Z,61440.00
2018-02-23T10:19:36.330Z,61056.00
2018-02-23T10:21:28.094Z,57312.00
2018-02-23T10:22:28.035Z,28448.00
2018-02-23T10:24:19.814Z,39264.00
2018-02-23T10:25:19.749Z,0.00
2018-02-23T10:27:11.618Z,55616.00
2018-02-23T10:28:11.564Z,54336.00
2018-02-23T10:30:03.345Z,35904.00
2018-02-23T10:31:03.456Z,23776.00
2018-02-23T10:32:55.673Z,35936.00
2018-02-23T10:33:55.620Z,46656.00
2018-02-23T10:35:47.398Z,54112.00
2018-02-23T10:36:47.312Z,52992.00
2018-02-23T10:38:39.116Z,49216.00
2018-02-23T10:39:39.017Z,51104.00
2018-02-23T10:41:30.797Z,50784.00
2018-02-23T10:42:30.722Z,52768.00
2018-02-23T10:44:22.611Z,49728.00
2018-02-23T10:45:22.597Z,49600.00
2018-02-23T10:47:14.339Z,48896.00
2018-02-23T10:48:14.261Z,46368.00
2018-02-23T10:50:06.073Z,47744.00
2018-02-23T10:51:05.998Z,46816.00
2018-02-23T10:52:57.794Z,47392.00
2018-02-23T10:53:57.757Z,46688.00
2018-02-23T10:55:49.513Z,44192.00
2018-02-23T10:56:49.460Z,42400.00
2018-02-23T10:58:41.256Z,32192.00
2018-02-23T10:59:41.159Z,24032.00
2018-02-23T11:01:32.954Z,19648.00
2018-02-23T11:02:32.854Z,17036.00
2018-02-23T11:04:24.615Z,14804.00
2018-02-23T11:05:24.578Z,22592.00
2018-02-23T11:07:16.417Z,38912.00
2018-02-23T11:08:16.280Z,40128.00
2018-02-23T11:10:08.088Z,40576.00
2018-02-23T11:11:08.002Z,39872.00
2018-02-23T11:12:59.842Z,30528.00
2018-02-23T11:13:59.770Z,24448.00
2018-02-23T11:15:51.668Z,20096.00
2018-02-23T11:16:51.492Z,18912.00
2018-02-23T11:18:43.286Z,17568.00
2018-02-23T11:19:43.181Z,24128.00
2018-02-23T11:21:34.988Z,17408.00
2018-02-23T11:22:34.910Z,17920.00
2018-02-23T11:24:26.672Z,30624.00
2018-02-23T11:25:26.737Z,30080.00
2018-02-23T11:27:18.431Z,18048.00
2018-02-23T11:28:18.318Z,13672.00
2018-02-23T11:30:10.187Z,13464.00
2018-02-23T11:31:10.020Z,19360.00
2018-02-23T11:33:01.917Z,28480.00
2018-02-23T11:34:01.744Z,28512.00
2018-02-23T11:35:53.561Z,27200.00
2018-02-23T11:36:53.435Z,22208.00
2018-02-23T11:38:45.218Z,15952.00
2018-02-23T11:39:45.164Z,14276.00
2018-02-23T11:41:37.029Z,15056.00
2018-02-23T11:42:36.891Z,13788.00
2018-02-23T11:44:28.619Z,11948.00
2018-02-23T11:45:28.546Z,11560.00
2018-02-23T11:47:20.324Z,11080.00
2018-02-23T11:48:20.273Z,10936.00
2018-02-23T11:50:12.092Z,10864.00
2018-02-23T11:51:11.988Z,10532.00
2018-02-23T11:53:04.443Z,10488.00
2018-02-23T11:54:03.797Z,10552.00
2018-02-23T11:55:55.636Z,10528.00
2018-02-23T11:56:55.513Z,10484.00
2018-02-23T11:58:47.275Z,9640.00
2018-02-23T11:59:47.226Z,9432.00
2018-02-23T12:01:38.966Z,9788.00
2018-02-23T12:02:38.877Z,9892.00
2018-02-23T12:04:30.638Z,10036.00
2018-02-23T12:05:30.563Z,9868.00
2018-02-23T12:07:22.325Z,9756.00
2018-02-23T12:08:22.314Z,9584.00
2018-02-23T12:10:14.051Z,9432.00
2018-02-23T12:11:13.952Z,9448.00
2018-02-23T12:13:05.705Z,9384.00
2018-02-23T12:14:05.656Z,9312.00
2018-02-23T12:15:57.467Z,9568.00
2018-02-23T12:16:57.345Z,9548.00
2018-02-23T12:18:49.119Z,9636.00
2018-02-23T12:19:49.040Z,9532.00
2018-02-23T12:21:40.821Z,9600.00
2018-02-23T12:22:40.778Z,9556.00
2018-02-23T12:24:32.617Z,9500.00
2018-02-23T12:25:32.521Z,9244.00
2018-02-23T12:27:24.460Z,9212.00
2018-02-23T12:28:24.525Z,9156.00
2018-02-23T12:30:16.136Z,9088.00
2018-02-23T12:31:16.068Z,9040.00
2018-02-23T12:33:07.819Z,8988.00
2018-02-23T12:34:07.788Z,8936.00
2018-02-23T12:35:59.509Z,8984.00
2018-02-23T12:36:59.450Z,8932.00
2018-02-23T12:38:51.299Z,9040.00
2018-02-23T12:39:51.108Z,8904.00
2018-02-23T12:41:42.974Z,8912.00
2018-02-23T12:42:42.834Z,8896.00
2018-02-23T12:44:34.705Z,8820.00
2018-02-23T12:45:34.586Z,8760.00
2018-02-23T12:47:26.336Z,8504.00
2018-02-23T12:48:26.268Z,8424.00
2018-02-23T12:50:18.007Z,8260.00
2018-02-23T12:51:17.936Z,8208.00
2018-02-23T12:53:09.751Z,8220.00
2018-02-23T12:54:09.614Z,8268.00
2018-02-23T12:56:01.366Z,8264.00
2018-02-23T12:57:01.940Z,8324.00
2018-02-23T12:58:53.062Z,8332.00
2018-02-23T12:59:52.960Z,8332.00
2018-02-23T13:01:44.742Z,8312.00
2018-02-23T13:02:44.689Z,8296.00
2018-02-23T13:04:36.415Z,8196.00
2018-02-23T13:05:36.377Z,8192.00
2018-02-23T13:07:28.781Z,8224.00
2018-02-23T13:08:28.303Z,8268.00
2018-02-23T13:10:20.015Z,8256.00
2018-02-23T13:11:19.916Z,8264.00
2018-02-23T13:13:11.686Z,8252.00
2018-02-23T13:14:11.594Z,8232.00
2018-02-23T13:16:03.339Z,8200.00
2018-02-23T13:17:03.259Z,8292.00
2018-02-23T13:18:55.231Z,8240.00
2018-02-23T13:19:55.051Z,8320.00
2018-02-23T13:21:46.893Z,8232.00
2018-02-23T13:22:46.839Z,8216.00
2018-02-23T13:24:38.803Z,8272.00
2018-02-23T13:25:38.608Z,8116.00
2018-02-23T13:27:30.533Z,8052.00
2018-02-23T13:28:30.409Z,8068.00
2018-02-23T13:30:22.185Z,8092.00
2018-02-23T13:31:22.099Z,8148.00
2018-02-23T13:33:13.957Z,8124.00
2018-02-23T13:34:13.798Z,8120.00
2018-02-23T13:36:05.598Z,8152.00
2018-02-23T13:37:05.540Z,8124.00
2018-02-23T13:38:57.262Z,8184.00
2018-02-23T13:39:57.240Z,8240.00
2018-02-23T13:41:48.916Z,8240.00
2018-02-23T13:42:49.003Z,8208.00
2018-02-23T13:44:40.621Z,8096.00
2018-02-23T13:45:40.529Z,8056.00
2018-02-23T13:47:32.594Z,8080.00
2018-02-23T13:48:32.378Z,8144.00
2018-02-23T13:50:24.221Z,8180.00
2018-02-23T13:51:24.252Z,8156.00
2018-02-23T13:53:15.947Z,8112.00
2018-02-23T13:54:15.840Z,8108.00
2018-02-23T13:56:07.708Z,8160.00
2018-02-23T13:57:07.500Z,8000.00
2018-02-23T13:58:59.370Z,7572.00
2018-02-23T13:59:59.244Z,7592.00
2018-02-23T14:01:50.994Z,7920.00
2018-02-23T14:02:50.920Z,7936.00
2018-02-23T14:04:42.803Z,7840.00
2018-02-23T14:05:42.631Z,7916.00
2018-02-23T14:07:34.467Z,7880.00
2018-02-23T14:08:34.317Z,7868.00
2018-02-23T14:10:26.133Z,7848.00
2018-02-23T14:11:26.038Z,7820.00
2018-02-23T14:13:17.824Z,7816.00
2018-02-23T14:14:17.797Z,7808.00
2018-02-23T14:16:09.640Z,7736.00
2018-02-23T14:17:09.438Z,7628.00
2018-02-23T14:19:01.224Z,7272.00
2018-02-23T14:20:01.135Z,7104.00
2018-02-23T14:21:53.026Z,7216.00
2018-02-23T14:22:52.977Z,7128.00
2018-02-23T14:24:44.757Z,6812.00
2018-02-23T14:25:44.673Z,6840.00
2018-02-23T14:27:36.459Z,6660.00
2018-02-23T14:28:36.371Z,6476.00
2018-02-23T14:30:28.150Z,6252.00
2018-02-23T14:31:28.071Z,6168.00
2018-02-23T14:33:19.872Z,5980.00
2018-02-23T14:34:19.788Z,5856.00
2018-02-23T14:36:11.608Z,5944.00
2018-02-23T14:37:11.535Z,5928.00
2018-02-23T14:39:03.262Z,5836.00
2018-02-23T14:40:03.141Z,5928.00
2018-02-23T14:41:54.897Z,5916.00
2018-02-23T14:42:54.821Z,5864.00
2018-02-23T14:44:46.701Z,5892.00
2018-02-23T14:45:46.634Z,5908.00
2018-02-23T14:47:38.496Z,5832.00
2018-02-23T14:48:38.233Z,5768.00
2018-02-23T14:50:29.991Z,5732.00
2018-02-23T14:51:29.914Z,5688.00
2018-02-23T14:53:21.793Z,5584.00
2018-02-23T14:54:21.709Z,5608.00
2018-02-23T14:56:13.492Z,5544.00
2018-02-23T14:57:13.385Z,5448.00
2018-02-23T14:59:05.305Z,5364.00
2018-02-23T15:00:05.251Z,5164.00
2018-02-23T15:01:57.010Z,4996.00
2018-02-23T15:02:56.970Z,4932.00
2018-02-23T15:04:48.732Z,4748.00
2018-02-23T15:05:48.623Z,4648.00
2018-02-23T15:07:40.369Z,4472.00
2018-02-23T15:08:40.300Z,4460.00
2018-02-23T15:10:32.169Z,4432.00
2018-02-23T15:11:32.272Z,4404.00
2018-02-23T15:13:23.947Z,4352.00
2018-02-23T15:14:23.889Z,4332.00
2018-02-23T15:16:15.629Z,4300.00
2018-02-23T15:17:15.596Z,4376.00
2018-02-23T15:19:07.292Z,4384.00
2018-02-23T15:20:07.222Z,4372.00
2018-02-23T15:21:59.053Z,4312.00
2018-02-23T15:22:58.929Z,4256.00
2018-02-23T15:24:50.777Z,4192.00
2018-02-23T15:25:51.036Z,4136.00
2018-02-23T15:27:42.458Z,4040.00
2018-02-23T15:28:42.405Z,3984.00
2018-02-23T15:30:34.213Z,3900.00
2018-02-23T15:31:34.301Z,3864.00
2018-02-23T15:33:25.837Z,3772.00
2018-02-23T15:34:25.766Z,3716.00
2018-02-23T15:36:17.533Z,3604.00
2018-02-23T15:37:17.493Z,3540.00
2018-02-23T15:39:09.265Z,3388.00
2018-02-23T15:40:09.203Z,3292.00
2018-02-23T15:42:01.187Z,2996.00
2018-02-23T15:43:01.106Z,2888.00
2018-02-23T15:44:52.930Z,2732.00
2018-02-23T15:45:52.845Z,2716.00
2018-02-23T15:47:44.753Z,2700.00
2018-02-23T15:48:44.676Z,2664.00
2018-02-23T15:50:36.513Z,2544.00
2018-02-23T15:51:36.522Z,2488.00
2018-02-23T15:53:28.135Z,2368.00
2018-02-23T15:54:28.070Z,2292.00
2018-02-23T15:56:19.865Z,2136.00
2018-02-23T15:57:19.749Z,2048.00
2018-02-23T15:59:11.553Z,1884.00
2018-02-23T16:00:11.460Z,1816.00
2018-02-23T16:02:03.293Z,1724.00
2018-02-23T16:03:03.279Z,1636.00
2018-02-23T16:04:54.939Z,1540.00
2018-02-23T16:05:54.783Z,1488.00
2018-02-23T16:07:46.668Z,1372.00
2018-02-23T16:08:46.557Z,1324.00
2018-02-23T16:10:38.300Z,1228.00
2018-02-23T16:11:38.287Z,1180.00
2018-02-23T16:13:30.192Z,1084.00
2018-02-23T16:14:30.018Z,1032.00
2018-02-23T16:16:21.818Z,944.00
2018-02-23T16:17:21.751Z,892.00
2018-02-23T16:19:13.531Z,804.00
2018-02-23T16:20:13.456Z,760.00
2018-02-23T16:22:05.333Z,684.00
2018-02-23T16:23:05.411Z,644.00
2018-02-23T16:24:57.060Z,568.00
2018-02-23T16:25:56.992Z,528.00
2018-02-23T16:27:48.804Z,456.00
2018-02-23T16:28:48.676Z,420.00
2018-02-23T16:30:40.452Z,360.00
2018-02-23T16:31:40.361Z,328.00
2018-02-23T16:33:32.420Z,280.00
2018-02-23T16:34:32.392Z,256.00
2018-02-23T16:36:24.205Z,212.00
2018-02-23T16:37:24.205Z,192.00
2018-02-23T16:39:15.829Z,156.00
2018-02-23T16:40:15.741Z,140.00
2018-02-23T16:42:07.609Z,112.00
2018-02-23T16:43:07.495Z,96.00
2018-02-23T16:44:59.222Z,72.00
2018-02-23T16:45:59.157Z,64.00
2018-02-23T16:47:50.840Z,48.00
2018-02-23T16:48:50.858Z,40.00
2018-02-23T16:50:42.520Z,32.00
2018-02-23T16:51:42.439Z,28.00
2018-02-23T16:53:34.209Z,20.00
2018-02-23T16:54:34.257Z,16.00
2018-02-23T16:56:26.026Z,12.00
2018-02-23T16:57:25.871Z,8.00
2018-02-23T16:59:17.702Z,8.00
2018-02-23T17:00:17.558Z,8.00
2018-02-23T17:02:09.269Z,4.00
2018-02-23T17:03:09.183Z,4.00
2018-02-23T17:05:00.952Z,4.00
2018-02-23T17:06:00.883Z,4.00
2018-02-23T17:07:52.890Z,0.00
2018-02-23T17:08:52.757Z,4.00
2018-02-23T17:10:44.284Z,0.00
2018-02-23T17:11:44.213Z,0.00
2018-02-23T17:13:36.114Z,0.00
2018-02-23T17:14:36.036Z,0.00
2018-02-23T17:16:28.036Z,0.00
2018-02-23T17:17:27.783Z,0.00
2018-02-23T17:19:19.572Z,0.00
2018-02-23T17:20:19.500Z,0.00
2018-02-23T17:22:11.263Z,0.00
2018-02-23T17:23:11.177Z,0.00
2018-02-23T17:25:02.935Z,0.00
2018-02-23T17:26:02.944Z,0.00
2018-02-23T17:27:54.703Z,0.00
2018-02-23T17:28:54.625Z,0.00
2018-02-23T17:30:46.290Z,0.00
2018-02-23T17:31:46.206Z,0.00
2018-02-23T17:33:38.144Z,0.00
2018-02-23T17:34:38.083Z,0.00
2018-02-23T17:36:30.448Z,0.00
2018-02-23T17:37:29.979Z,0.00
2018-02-23T17:39:21.665Z,0.00
2018-02-23T17:40:21.651Z,0.00
2018-02-23T17:42:13.431Z,0.00
2018-02-23T17:43:13.303Z,0.00
2018-02-23T17:45:05.056Z,0.00
2018-02-23T17:46:05.001Z,0.00
2018-02-23T17:47:56.772Z,0.00
2018-02-23T17:48:56.631Z,0.00
2018-02-23T17:50:48.375Z,0.00